createdAt,value
2022-12-14T00:01:00.035Z,96533.84
2022-12-14T00:04:02.975Z,96528.50
2022-12-14T00:07:05.865Z,96523.81
2022-12-14T00:10:10.993Z,96507.28
2022-12-14T00:13:15.825Z,96508.63
2022-12-14T00:16:19.225Z,96496.88
2022-12-14T00:19:22.185Z,96499.44
2022-12-14T00:22:25.106Z,96489.72
2022-12-14T00:25:29.401Z,96489.34
2022-12-14T00:28:32.281Z,96486.59
2022-12-14T00:31:36.392Z,96489.06
2022-12-14T00:34:39.344Z,96486.88
2022-12-14T00:37:42.245Z,96480.66
2022-12-14T00:40:46.544Z,96479.13
2022-12-14T00:43:49.834Z,96486.06
2022-12-14T00:46:53.015Z,96488.50
2022-12-14T00:49:55.939Z,96474.78
2022-12-14T00:52:58.841Z,96474.78
2022-12-14T00:56:08.047Z,96471.03
2022-12-14T00:59:10.989Z,96484.59
2022-12-14T01:02:13.963Z,96488.50
2022-12-14T01:05:17.099Z,96481.38
2022-12-14T01:08:20.097Z,96475.34
2022-12-14T01:11:24.445Z,96475.72
2022-12-14T01:14:27.319Z,96469.88
2022-12-14T01:17:30.444Z,96460.19
2022-12-14T01:20:33.358Z,96460.69
2022-12-14T01:23:36.341Z,96454.97
2022-12-14T01:26:41.353Z,96455.25
2022-12-14T01:29:44.285Z,96443.09
2022-12-14T01:32:47.264Z,96448.63
2022-12-14T01:35:50.935Z,96446.97
2022-12-14T01:38:55.201Z,96446.59
2022-12-14T01:41:59.438Z,96446.06
2022-12-14T01:45:02.290Z,96448.81
2022-12-14T01:48:06.289Z,96454.56
2022-12-14T01:51:09.601Z,96442.69
2022-12-14T01:54:15.922Z,96447.69
2022-12-14T01:57:24.621Z,96452.72
2022-12-14T02:00:27.955Z,96439.94
2022-12-14T02:03:34.698Z,96442.28
2022-12-14T02:06:41.433Z,96439.94
2022-12-14T02:09:47.351Z,96448.03
2022-12-14T02:13:00.314Z,96442.91
2022-12-14T02:16:03.377Z,96435.94
2022-12-14T02:19:06.258Z,96434.72
2022-12-14T02:22:32.006Z,96436.06
2022-12-14T02:26:20.116Z,96426.53
2022-12-14T02:29:40.443Z,96418.56
2022-12-14T02:33:04.031Z,96420.78
2022-12-14T02:36:14.605Z,96418.97
2022-12-14T02:39:25.681Z,96417.47
2022-12-14T02:42:42.345Z,96409.75
2022-12-14T02:45:51.555Z,96406.28
2022-12-14T02:49:00.314Z,96403.81
2022-12-14T02:52:09.338Z,96401.56
2022-12-14T02:55:17.111Z,96398.56
2022-12-14T02:58:25.591Z,96387.63
2022-12-14T03:01:31.171Z,96382.50
2022-12-14T03:04:34.103Z,96381.91
2022-12-14T03:07:45.135Z,96385.59
2022-12-14T03:10:56.243Z,96383.75
2022-12-14T03:14:04.412Z,96383.97
2022-12-14T03:17:19.414Z,96378.41
2022-12-14T03:20:26.723Z,96381.09
2022-12-14T03:23:34.426Z,96376.59
2022-12-14T03:26:47.394Z,96368.78
2022-12-14T03:29:55.262Z,96363.66
2022-12-14T03:33:05.929Z,96366.75
2022-12-14T03:36:16.520Z,96357.22
2022-12-14T03:39:24.218Z,96358.78
2022-12-14T03:42:32.892Z,96353.66
2022-12-14T03:45:48.254Z,96347.91
2022-12-14T03:48:56.584Z,96351.09
2022-12-14T03:52:07.073Z,96342.09
2022-12-14T03:55:21.510Z,96333.47
2022-12-14T03:58:34.627Z,96327.84
2022-12-14T04:01:46.730Z,96318.44
2022-12-14T04:05:00.251Z,96315.25
2022-12-14T04:08:08.649Z,96310.16
2022-12-14T04:11:33.890Z,96311.28
2022-12-14T04:15:00.895Z,96314.34
2022-12-14T04:18:25.910Z,96308.19
2022-12-14T04:21:40.171Z,96297.56
2022-12-14T04:25:05.155Z,96294.25
2022-12-14T04:28:33.158Z,96275.41
2022-12-14T04:31:40.164Z,96277.34
2022-12-14T04:34:46.649Z,96274.38
2022-12-14T04:37:54.260Z,96266.78
2022-12-14T04:41:00.607Z,96264.56
2022-12-14T04:44:10.936Z,96271.13
2022-12-14T04:47:17.293Z,96265.50
2022-12-14T04:50:26.884Z,96264.78
2022-12-14T04:53:35.319Z,96256.00
2022-12-14T04:56:43.059Z,96244.94
2022-12-14T04:59:46.166Z,96247.72
2022-12-14T05:03:06.902Z,96244.41
2022-12-14T05:06:18.310Z,96244.75
2022-12-14T05:09:28.088Z,96241.25
2022-12-14T05:12:40.599Z,96237.06
2022-12-14T05:15:46.437Z,96229.19
2022-12-14T05:18:49.417Z,96233.69
2022-12-14T05:21:52.322Z,96234.69
2022-12-14T05:24:56.540Z,96227.16
2022-12-14T05:27:59.486Z,96217.72
2022-12-14T05:31:02.623Z,96204.50
2022-12-14T05:37:18.521Z,96204.38
2022-12-14T05:40:21.592Z,96194.22
2022-12-14T05:43:24.691Z,96185.88
2022-12-14T05:46:27.932Z,96188.28
2022-12-14T05:49:30.789Z,96180.50
2022-12-14T05:52:35.356Z,96181.50
2022-12-14T05:55:38.236Z,96172.09
2022-12-14T05:58:41.642Z,96175.31
2022-12-14T06:01:49.487Z,96176.84
2022-12-14T06:04:53.163Z,96189.50
2022-12-14T06:07:57.335Z,96182.97
2022-12-14T06:11:04.493Z,96176.50
2022-12-14T06:14:07.771Z,96170.38
2022-12-14T06:17:12.092Z,96176.03
2022-12-14T06:20:15.544Z,96183.31
2022-12-14T06:23:19.784Z,96173.59
2022-12-14T06:26:23.399Z,96179.28
2022-12-14T06:29:26.222Z,96176.63
2022-12-14T06:32:29.568Z,96174.41
2022-12-14T06:35:32.447Z,96175.84
2022-12-14T06:38:37.657Z,96179.53
2022-12-14T06:41:41.397Z,96167.66
2022-12-14T06:44:44.245Z,96172.59
2022-12-14T06:47:47.069Z,96170.75
2022-12-14T06:50:50.258Z,96168.28
2022-12-14T06:53:56.026Z,96165.94
2022-12-14T06:56:58.926Z,96150.91
2022-12-14T07:00:01.816Z,96159.19
2022-12-14T07:03:04.925Z,96158.28
2022-12-14T07:06:08.900Z,96154.72
2022-12-14T07:09:15.357Z,96154.94
2022-12-14T07:12:18.278Z,96164.25
2022-12-14T07:15:21.191Z,96156.88
2022-12-14T07:18:24.934Z,96158.91
2022-12-14T07:21:28.571Z,96159.31
2022-12-14T07:24:32.782Z,96150.13
2022-12-14T07:27:35.686Z,96140.84
2022-12-14T07:30:38.554Z,96139.69
2022-12-14T07:33:41.537Z,96151.84
2022-12-14T07:36:44.718Z,96150.84
2022-12-14T07:39:48.968Z,96147.44
2022-12-14T07:42:51.917Z,96140.81
2022-12-14T07:45:54.802Z,96128.59
2022-12-14T07:48:59.756Z,96122.03
2022-12-14T07:52:02.750Z,96134.94
2022-12-14T07:55:08.186Z,96128.84
2022-12-14T07:58:11.084Z,96123.78
2022-12-14T08:01:17.092Z,96122.81
2022-12-14T08:04:21.341Z,96117.25
2022-12-14T08:07:24.329Z,96120.13
2022-12-14T08:10:28.594Z,96126.25
2022-12-14T08:13:32.176Z,96121.41
2022-12-14T08:16:35.533Z,96127.13
2022-12-14T08:19:38.477Z,96125.19
2022-12-14T08:22:41.422Z,96110.69
2022-12-14T08:25:45.694Z,96109.59
2022-12-14T08:28:48.773Z,96098.34
2022-12-14T08:31:51.755Z,96090.53
2022-12-14T08:34:54.641Z,96092.34
2022-12-14T08:37:57.497Z,96081.63
2022-12-14T08:41:04.949Z,96075.13
2022-12-14T08:44:08.617Z,96074.69
2022-12-14T08:47:11.526Z,96056.13
2022-12-14T08:50:14.439Z,96054.28
2022-12-14T08:53:17.372Z,96052.91
2022-12-14T08:56:25.002Z,96055.44
2022-12-14T08:59:59.512Z,96057.56
2022-12-14T09:02:51.699Z,96052.31
2022-12-14T09:05:55.471Z,96054.09
2022-12-14T09:08:59.151Z,96065.66
2022-12-14T09:12:06.439Z,96068.06
2022-12-14T09:15:10.081Z,96056.19
2022-12-14T09:18:12.993Z,96051.69
2022-12-14T09:21:16.441Z,96041.09
2022-12-14T09:24:20.093Z,96021.78
2022-12-14T09:27:24.344Z,96022.47
2022-12-14T09:30:27.308Z,96019.78
2022-12-14T09:33:30.991Z,96018.75
2022-12-14T09:36:34.916Z,96022.22
2022-12-14T09:39:37.799Z,96027.34
2022-12-14T09:42:54.786Z,96020.50
2022-12-14T09:46:06.906Z,96021.78
2022-12-14T09:49:23.669Z,96013.88
2022-12-14T09:52:35.408Z,96010.81
2022-12-14T09:55:43.005Z,96001.50
2022-12-14T09:58:53.764Z,96006.13
2022-12-14T10:05:39.875Z,96002.25
2022-12-14T10:08:54.519Z,96007.97
2022-12-14T10:12:07.867Z,96016.94
2022-12-14T10:15:22.673Z,96021.00
2022-12-14T10:18:59.384Z,96019.13
2022-12-14T10:22:07.947Z,96017.19
2022-12-14T10:25:15.848Z,96011.91
2022-12-14T10:28:21.617Z,96008.75
2022-12-14T10:31:33.154Z,96000.44
2022-12-14T10:34:37.508Z,96006.00
2022-12-14T10:37:44.216Z,96004.84
2022-12-14T10:40:50.250Z,96008.09
2022-12-14T10:43:59.618Z,96006.00
2022-12-14T10:47:15.321Z,96006.44
2022-12-14T10:50:26.585Z,96002.22
2022-12-14T10:53:40.181Z,95995.22
2022-12-14T10:56:49.717Z,96000.09
2022-12-14T11:00:07.754Z,96001.88
2022-12-14T11:03:16.705Z,95995.53
2022-12-14T11:06:21.164Z,95987.63
2022-12-14T11:09:26.068Z,95991.56
2022-12-14T11:12:29.297Z,95985.53
2022-12-14T11:15:35.882Z,95977.66
2022-12-14T11:18:41.762Z,95981.13
2022-12-14T11:21:45.240Z,95979.22
2022-12-14T11:24:52.879Z,95975.31
2022-12-14T11:27:56.216Z,95971.44
2022-12-14T11:31:03.036Z,95973.22
2022-12-14T11:34:22.173Z,95963.56
2022-12-14T11:37:27.905Z,95953.88
2022-12-14T11:40:37.191Z,95959.13
2022-12-14T11:43:40.651Z,95958.94
2022-12-14T11:46:53.663Z,95954.88
2022-12-14T11:49:58.364Z,95946.22
2022-12-14T11:53:11.023Z,95943.28
2022-12-14T11:56:18.085Z,95951.41
2022-12-14T11:59:21.053Z,95950.03
2022-12-14T12:02:28.519Z,95964.81
2022-12-14T12:05:34.627Z,95967.31
2022-12-14T12:08:39.783Z,95970.19
2022-12-14T12:11:46.264Z,95971.28
2022-12-14T12:14:55.509Z,95973.03
2022-12-14T12:18:03.685Z,95965.28
2022-12-14T12:21:13.095Z,95967.69
2022-12-14T12:24:21.885Z,95967.66
2022-12-14T12:27:27.107Z,95972.34
2022-12-14T12:30:34.443Z,95964.34
2022-12-14T12:33:44.683Z,95964.38
2022-12-14T12:37:24.136Z,95962.75
2022-12-14T12:40:19.555Z,95963.50
2022-12-14T12:43:27.521Z,95960.44
2022-12-14T12:46:35.910Z,95956.47
2022-12-14T12:49:46.871Z,95956.09
2022-12-14T12:53:03.635Z,95954.78
2022-12-14T12:56:13.131Z,95958.06
2022-12-14T12:59:20.979Z,95955.66
2022-12-14T13:02:32.395Z,95975.91
2022-12-14T13:05:52.132Z,95979.06
2022-12-14T13:09:00.223Z,95973.41
2022-12-14T13:12:05.775Z,95981.03
2022-12-14T13:15:19.165Z,95992.69
2022-12-14T13:18:49.382Z,95993.81
2022-12-14T13:21:51.262Z,95998.56
2022-12-14T13:24:59.718Z,96003.03
2022-12-14T13:28:25.448Z,95999.78
2022-12-14T13:31:38.657Z,95998.47
2022-12-14T13:34:55.667Z,95994.56
2022-12-14T13:38:43.182Z,95995.78
2022-12-14T13:41:52.583Z,95999.88
2022-12-14T13:44:58.107Z,95999.59
2022-12-14T13:48:01.179Z,95990.91
2022-12-14T13:51:07.210Z,95977.38
2022-12-14T13:54:22.796Z,95955.97
2022-12-14T13:57:28.083Z,95953.28
2022-12-14T14:00:51.018Z,95943.00
2022-12-14T14:03:55.396Z,95931.06
2022-12-14T14:07:38.381Z,95907.09
2022-12-14T14:10:42.192Z,95904.66
2022-12-14T14:14:12.875Z,95910.72
2022-12-14T14:17:23.282Z,95907.25
2022-12-14T14:20:45.486Z,95904.66
2022-12-14T14:23:57.026Z,95909.09
2022-12-14T14:27:09.909Z,95912.38
2022-12-14T14:30:28.821Z,95915.09
2022-12-14T14:33:45.482Z,95915.09
2022-12-14T14:36:51.153Z,95912.63
2022-12-14T14:40:13.393Z,95904.13
2022-12-14T14:43:26.421Z,95919.41
2022-12-14T14:46:38.361Z,95918.88
2022-12-14T14:49:43.615Z,95914.81
2022-12-14T14:53:25.994Z,95928.06
2022-12-14T14:56:38.345Z,95923.75
2022-12-14T14:59:50.542Z,95923.47
2022-12-14T15:02:56.626Z,95923.75
2022-12-14T15:06:00.676Z,95925.09
2022-12-14T15:09:06.683Z,95930.78
2022-12-14T15:12:24.259Z,95940.53
2022-12-14T15:15:35.667Z,95944.31
2022-12-14T15:18:39.944Z,95947.81
2022-12-14T15:21:42.918Z,95949.47
2022-12-14T15:24:47.688Z,95961.91
2022-12-14T15:27:50.882Z,95965.03
2022-12-14T15:30:55.312Z,95960.13
2022-12-14T15:34:00.908Z,95969.88
2022-12-14T15:37:03.866Z,95968.38
2022-12-14T15:40:11.949Z,95983.53
2022-12-14T15:43:19.142Z,95996.94
2022-12-14T15:46:26.945Z,96010.19
2022-12-14T15:49:31.218Z,96023.28
2022-12-14T15:52:34.367Z,96032.19
2022-12-14T15:55:41.214Z,96048.94
2022-12-14T15:58:45.389Z,96057.41
2022-12-14T16:01:55.846Z,96063.88
2022-12-14T16:05:04.260Z,96075.91
2022-12-14T16:08:09.979Z,96085.84
2022-12-14T16:11:21.216Z,96089.81
2022-12-14T16:14:27.182Z,96098.22
2022-12-14T16:17:33.406Z,96102.69
2022-12-14T16:20:38.972Z,96104.31
2022-12-14T16:23:45.441Z,96106.69
2022-12-14T16:26:57.448Z,96105.25
2022-12-14T16:30:23.192Z,96112.44
2022-12-14T16:33:26.458Z,96124.34
2022-12-14T16:36:33.343Z,96131.69
2022-12-14T16:39:39.741Z,96132.91
2022-12-14T16:42:45.720Z,96141.09
2022-12-14T16:46:13.632Z,96149.19
2022-12-14T16:49:31.529Z,96157.56
2022-12-14T16:52:38.075Z,96165.19
2022-12-14T16:56:02.052Z,96172.25
2022-12-14T16:59:07.216Z,96181.66
2022-12-14T17:02:27.924Z,96198.28
2022-12-14T17:05:35.465Z,96202.25
2022-12-14T17:08:39.804Z,96200.16
2022-12-14T17:11:42.718Z,96200.91
2022-12-14T17:14:49.878Z,96194.63
2022-12-14T17:17:56.278Z,96198.69
2022-12-14T17:20:59.257Z,96196.34
2022-12-14T17:24:03.575Z,96192.88
2022-12-14T17:27:06.470Z,96211.03
2022-12-14T17:30:15.748Z,96214.56
2022-12-14T17:33:18.858Z,96224.34
2022-12-14T17:36:21.932Z,96226.69
2022-12-14T17:39:28.626Z,96226.25
2022-12-14T17:42:31.783Z,96232.13
2022-12-14T17:45:34.657Z,96231.03
2022-12-14T17:48:37.772Z,96231.06
2022-12-14T17:51:42.736Z,96244.41
2022-12-14T17:54:47.263Z,96261.34
2022-12-14T17:57:51.340Z,96269.06
2022-12-14T18:01:03.428Z,96270.31
2022-12-14T18:04:07.469Z,96278.63
2022-12-14T18:07:11.182Z,96282.13
2022-12-14T18:10:17.674Z,96277.69
2022-12-14T18:13:20.641Z,96286.31
2022-12-14T18:16:25.634Z,96290.78
2022-12-14T18:19:29.950Z,96290.47
2022-12-14T18:22:32.918Z,96292.72
2022-12-14T18:25:39.123Z,96295.97
2022-12-14T18:28:43.402Z,96303.59
2022-12-14T18:31:49.707Z,96314.31
2022-12-14T18:34:53.009Z,96322.13
2022-12-14T18:37:56.198Z,96334.06
2022-12-14T18:41:03.235Z,96339.19
2022-12-14T18:44:06.343Z,96348.28
2022-12-14T18:47:33.528Z,96352.25
2022-12-14T18:50:32.318Z,96359.53
2022-12-14T18:53:35.425Z,96363.47
2022-12-14T18:56:41.995Z,96368.16
2022-12-14T18:59:44.850Z,96371.88
2022-12-14T19:02:49.746Z,96368.63
2022-12-14T19:05:53.500Z,96383.09
2022-12-14T19:08:57.068Z,96381.22
2022-12-14T19:12:01.382Z,96386.59
2022-12-14T19:15:04.599Z,96397.91
2022-12-14T19:18:07.688Z,96390.34
2022-12-14T19:21:10.961Z,96396.44
2022-12-14T19:24:14.987Z,96392.81
2022-12-14T19:27:35.675Z,96393.16
2022-12-14T19:30:45.041Z,96403.19
2022-12-14T19:33:48.004Z,96392.69
2022-12-14T19:36:51.070Z,96396.88
2022-12-14T19:39:57.095Z,96393.38
2022-12-14T19:43:01.384Z,96398.84
2022-12-14T19:46:07.359Z,96406.47
2022-12-14T19:49:13.534Z,96411.84
2022-12-14T19:52:16.522Z,96412.88
2022-12-14T19:55:19.630Z,96409.38
2022-12-14T19:58:25.354Z,96418.63
2022-12-14T20:01:32.682Z,96403.09
2022-12-14T20:04:36.278Z,96405.53
2022-12-14T20:07:43.848Z,96405.41
2022-12-14T20:10:47.551Z,96399.69
2022-12-14T20:13:57.414Z,96396.88
2022-12-14T20:17:03.003Z,96403.19
2022-12-14T20:20:06.690Z,96402.63
2022-12-14T20:23:09.612Z,96397.13
2022-12-14T20:26:15.539Z,96396.63
2022-12-14T20:29:19.818Z,96396.59
2022-12-14T20:32:22.915Z,96379.09
2022-12-14T20:35:25.931Z,96364.03
2022-12-14T20:38:32.685Z,96349.88
2022-12-14T20:41:35.920Z,96332.63
2022-12-14T20:44:40.225Z,96323.78
2022-12-14T20:47:45.748Z,96312.41
2022-12-14T20:50:50.441Z,96309.09
2022-12-14T20:53:54.178Z,96290.38
2022-12-14T20:56:57.746Z,96271.72
2022-12-14T21:00:02.124Z,96240.50
2022-12-14T21:03:05.546Z,96228.00
2022-12-14T21:06:09.544Z,96219.94
2022-12-14T21:09:12.697Z,96200.72
2022-12-14T21:12:21.623Z,96186.25
2022-12-14T21:15:26.491Z,96171.09
2022-12-14T21:18:29.381Z,96162.16
2022-12-14T21:21:32.450Z,96160.50
2022-12-14T21:25:01.745Z,96148.66
2022-12-14T21:27:59.718Z,96145.63
2022-12-14T21:31:04.899Z,96127.97
2022-12-14T21:34:08.412Z,96124.41
2022-12-14T21:37:12.241Z,96117.81
2022-12-14T21:40:35.794Z,96119.47
2022-12-14T21:43:37.700Z,96115.91
2022-12-14T21:46:41.985Z,96112.50
2022-12-14T21:49:45.993Z,96113.75
2022-12-14T21:52:49.408Z,96123.97
2022-12-14T21:56:12.760Z,96120.28
2022-12-14T21:59:16.007Z,96120.41
2022-12-14T22:02:22.818Z,96115.81
2022-12-14T22:05:25.820Z,96108.53
2022-12-14T22:08:31.235Z,96119.88
2022-12-14T22:11:34.957Z,96116.81
2022-12-14T22:14:38.850Z,96126.00
2022-12-14T22:17:43.240Z,96126.78
2022-12-14T22:20:46.188Z,96116.81
2022-12-14T22:23:49.164Z,96121.31
2022-12-14T22:26:53.197Z,96122.97
2022-12-14T22:29:56.848Z,96128.28
2022-12-14T22:33:01.586Z,96122.06
2022-12-14T22:36:05.023Z,96115.78
2022-12-14T22:39:08.032Z,96123.19
2022-12-14T22:42:11.007Z,96120.19
2022-12-14T22:45:13.913Z,96117.97
2022-12-14T22:48:18.143Z,96119.28
2022-12-14T22:51:22.334Z,96121.78
2022-12-14T22:54:28.081Z,96121.28
2022-12-14T22:57:33.229Z,96122.56
2022-12-14T23:00:36.203Z,96122.16
2022-12-14T23:03:41.102Z,96127.78
2022-12-14T23:06:44.271Z,96121.47
2022-12-14T23:10:04.723Z,96124.41
2022-12-14T23:13:25.071Z,96120.69
2022-12-14T23:16:45.623Z,96132.84
2022-12-14T23:20:11.894Z,96128.00
2022-12-14T23:23:32.729Z,96142.84
2022-12-14T23:26:53.498Z,96142.91
2022-12-14T23:30:13.742Z,96139.28
2022-12-14T23:33:34.190Z,96143.19
2022-12-14T23:36:56.049Z,96139.16
2022-12-14T23:40:16.500Z,96135.06
2022-12-14T23:43:36.895Z,96135.72
2022-12-14T23:46:57.383Z,96142.47
2022-12-14T23:50:17.964Z,96144.66
2022-12-14T23:53:39.586Z,96145.38
2022-12-14T23:56:59.909Z,96147.56
